createdAt,value
2022-12-20T00:00:52.465Z,2.98
2022-12-20T00:03:20.675Z,3.37
2022-12-20T00:05:49.008Z,3.85
2022-12-20T00:08:17.447Z,2.95
2022-12-20T00:10:46.726Z,3.70
2022-12-20T00:13:14.179Z,3.00
2022-12-20T00:15:41.357Z,3.40
2022-12-20T00:18:08.858Z,3.19
2022-12-20T00:20:36.077Z,3.21
2022-12-20T00:23:03.272Z,3.05
2022-12-20T00:25:30.701Z,3.43
2022-12-20T00:27:57.824Z,3.97
2022-12-20T00:30:24.986Z,2.72
2022-12-20T00:32:52.445Z,3.68
2022-12-20T00:35:19.631Z,2.67
2022-12-20T00:37:46.784Z,3.20
2022-12-20T00:40:14.486Z,3.96
2022-12-20T00:42:41.623Z,4.28
2022-12-20T00:45:09.032Z,3.11
2022-12-20T00:47:36.479Z,3.23
2022-12-20T00:50:03.692Z,3.18
2022-12-20T00:52:30.943Z,3.15
2022-12-20T00:54:58.598Z,3.57
2022-12-20T00:57:25.917Z,2.99
2022-12-20T00:59:53.289Z,3.02
2022-12-20T01:02:21.148Z,3.60
2022-12-20T01:04:49.184Z,2.89
2022-12-20T01:07:16.331Z,2.69
2022-12-20T01:09:43.797Z,2.36
2022-12-20T01:12:11.412Z,3.12
2022-12-20T01:14:39.582Z,3.55
2022-12-20T01:17:07.084Z,2.65
2022-12-20T01:19:34.286Z,2.43
2022-12-20T01:22:02.025Z,2.65
2022-12-20T01:24:29.507Z,2.82
2022-12-20T01:26:56.705Z,2.09
2022-12-20T01:29:23.872Z,3.20
2022-12-20T01:31:51.432Z,3.36
2022-12-20T01:34:18.569Z,2.48
2022-12-20T01:36:45.740Z,1.77
2022-12-20T01:39:14.546Z,1.86
2022-12-20T01:41:42.703Z,2.46
2022-12-20T01:44:18.762Z,2.47
2022-12-20T01:46:46.883Z,2.78
2022-12-20T01:49:15.119Z,2.58
2022-12-20T01:51:47.466Z,2.86
2022-12-20T01:54:16.149Z,2.14
2022-12-20T01:56:43.543Z,1.65
2022-12-20T01:59:10.712Z,2.89
2022-12-20T02:01:38.214Z,2.52
2022-12-20T02:04:05.747Z,2.67
2022-12-20T02:06:33.131Z,2.15
2022-12-20T02:09:00.742Z,3.41
2022-12-20T02:11:47.936Z,3.25
2022-12-20T02:14:33.956Z,2.53
2022-12-20T02:17:01.384Z,2.17
2022-12-20T02:19:28.514Z,3.41
2022-12-20T02:22:01.005Z,4.19
2022-12-20T02:24:35.567Z,3.72
2022-12-20T02:27:22.607Z,4.28
2022-12-20T02:30:06.599Z,4.42
2022-12-20T02:32:36.330Z,4.12
2022-12-20T02:35:05.395Z,4.67
2022-12-20T02:37:32.631Z,3.85
2022-12-20T02:40:00.012Z,4.05
2022-12-20T02:42:27.620Z,3.84
2022-12-20T02:45:15.065Z,3.12
2022-12-20T02:47:45.720Z,3.42
2022-12-20T02:50:12.943Z,2.95
2022-12-20T02:52:42.476Z,3.02
2022-12-20T02:55:10.221Z,3.39
2022-12-20T02:57:57.894Z,3.75
2022-12-20T03:00:27.487Z,3.51
2022-12-20T03:03:13.504Z,3.37
2022-12-20T03:05:44.763Z,1.85
2022-12-20T03:08:11.910Z,1.39
2022-12-20T03:10:39.217Z,2.15
2022-12-20T03:13:06.657Z,2.50
2022-12-20T03:15:35.543Z,2.71
2022-12-20T03:18:02.985Z,2.52
2022-12-20T03:20:30.473Z,2.76
2022-12-20T03:22:57.630Z,2.83
2022-12-20T03:25:24.823Z,3.30
2022-12-20T03:27:52.393Z,1.93
2022-12-20T03:30:19.756Z,3.19
2022-12-20T03:32:46.997Z,4.44
2022-12-20T03:35:14.734Z,4.22
2022-12-20T03:37:41.988Z,3.13
2022-12-20T03:40:09.700Z,4.37
2022-12-20T03:42:37.182Z,4.49
2022-12-20T03:45:04.712Z,4.92
2022-12-20T03:47:32.045Z,4.69
2022-12-20T03:49:59.681Z,5.21
2022-12-20T03:52:27.210Z,5.36
2022-12-20T03:54:54.366Z,5.37
2022-12-20T03:57:21.826Z,5.53
2022-12-20T03:59:49.669Z,6.04
2022-12-20T04:02:17.024Z,5.55
2022-12-20T04:04:44.561Z,4.89
2022-12-20T04:07:12.369Z,6.06
2022-12-20T04:09:39.657Z,5.71
2022-12-20T04:12:07.866Z,5.47
2022-12-20T04:14:37.455Z,5.65
2022-12-20T04:17:04.787Z,4.57
2022-12-20T04:19:32.737Z,5.98
2022-12-20T04:22:05.125Z,5.52
2022-12-20T04:24:34.661Z,5.51
2022-12-20T04:27:02.451Z,4.21
2022-12-20T04:29:29.778Z,5.01
2022-12-20T04:31:58.169Z,5.08
2022-12-20T04:34:25.422Z,4.36
2022-12-20T04:36:53.014Z,3.12
2022-12-20T04:39:20.963Z,3.47
2022-12-20T04:41:51.463Z,3.24
2022-12-20T04:44:18.655Z,3.62
2022-12-20T04:46:46.127Z,4.29
2022-12-20T04:49:13.492Z,4.92
2022-12-20T04:51:40.890Z,3.90
2022-12-20T04:54:08.927Z,4.17
2022-12-20T04:56:36.457Z,4.32
2022-12-20T04:59:04.159Z,5.05
2022-12-20T05:01:31.752Z,5.42
2022-12-20T05:03:59.446Z,5.26
2022-12-20T05:06:28.720Z,5.11
2022-12-20T05:08:56.615Z,5.76
2022-12-20T05:11:23.863Z,5.39
2022-12-20T05:13:53.973Z,5.77
2022-12-20T05:16:21.629Z,6.03
2022-12-20T05:18:49.814Z,5.93
2022-12-20T05:21:36.375Z,6.37
2022-12-20T05:24:22.676Z,6.86
2022-12-20T05:26:50.756Z,5.72
2022-12-20T05:29:18.507Z,5.00
2022-12-20T05:31:45.770Z,4.49
2022-12-20T05:34:13.053Z,5.28
2022-12-20T05:36:41.033Z,5.16
2022-12-20T05:39:08.290Z,5.40
2022-12-20T05:41:35.976Z,5.50
2022-12-20T05:44:03.770Z,4.90
2022-12-20T05:46:32.747Z,4.63
2022-12-20T05:49:00.206Z,5.30
2022-12-20T05:51:27.941Z,5.47
2022-12-20T05:53:55.264Z,5.79
2022-12-20T05:56:22.935Z,5.77
2022-12-20T05:58:50.382Z,5.83
2022-12-20T06:01:18.393Z,6.11
2022-12-20T06:03:46.266Z,5.82
2022-12-20T06:06:15.233Z,6.45
2022-12-20T06:08:43.360Z,5.67
2022-12-20T06:11:11.555Z,5.30
2022-12-20T06:13:40.991Z,5.95
2022-12-20T06:16:08.712Z,6.33
2022-12-20T06:18:36.157Z,6.26
2022-12-20T06:21:04.113Z,5.97
2022-12-20T06:23:31.282Z,5.71
2022-12-20T06:25:59.031Z,5.09
2022-12-20T06:28:26.713Z,4.92
2022-12-20T06:30:55.002Z,6.07
2022-12-20T06:33:24.516Z,5.72
2022-12-20T06:35:52.168Z,5.47
2022-12-20T06:38:20.633Z,5.26
2022-12-20T06:40:48.134Z,5.51
2022-12-20T06:43:16.236Z,5.72
2022-12-20T06:45:43.507Z,6.43
2022-12-20T06:48:11.213Z,5.86
2022-12-20T06:50:39.371Z,4.54
2022-12-20T06:53:06.911Z,4.68
2022-12-20T06:55:34.860Z,5.25
2022-12-20T06:58:02.040Z,4.86
2022-12-20T07:00:29.221Z,5.85
2022-12-20T07:02:56.695Z,5.47
2022-12-20T07:05:23.928Z,4.69
2022-12-20T07:07:51.107Z,4.25
2022-12-20T07:10:18.670Z,4.19
2022-12-20T07:12:48.482Z,4.66
2022-12-20T07:15:16.131Z,4.84
2022-12-20T07:17:43.641Z,3.56
2022-12-20T07:20:13.639Z,4.74
2022-12-20T07:22:41.724Z,3.83
2022-12-20T07:25:09.375Z,4.55
2022-12-20T07:27:36.506Z,4.83
2022-12-20T07:30:05.198Z,5.64
2022-12-20T07:32:32.711Z,4.71
2022-12-20T07:34:59.960Z,4.03
2022-12-20T07:37:28.678Z,3.88
2022-12-20T07:39:56.159Z,4.21
2022-12-20T07:42:23.457Z,4.49
2022-12-20T07:44:50.817Z,3.02
2022-12-20T07:47:18.218Z,3.49
2022-12-20T07:49:45.390Z,2.77
2022-12-20T07:52:12.605Z,3.76
2022-12-20T07:54:47.320Z,3.61
2022-12-20T07:57:15.976Z,3.66
2022-12-20T07:59:48.228Z,3.62
2022-12-20T08:02:20.697Z,4.94
2022-12-20T08:04:50.694Z,3.92
2022-12-20T08:07:17.983Z,4.31
2022-12-20T08:09:45.149Z,3.88
2022-12-20T08:12:13.389Z,3.36
2022-12-20T08:14:40.593Z,2.54
2022-12-20T08:17:07.823Z,2.26
2022-12-20T08:19:35.495Z,2.23
2022-12-20T08:22:02.931Z,2.49
2022-12-20T08:24:30.099Z,2.58
2022-12-20T08:26:57.966Z,2.93
2022-12-20T08:29:25.093Z,2.93
2022-12-20T08:31:52.380Z,2.80
2022-12-20T08:34:20.173Z,2.54
2022-12-20T08:36:47.301Z,3.76
2022-12-20T08:39:14.570Z,4.16
2022-12-20T08:41:42.041Z,3.88
2022-12-20T08:44:10.769Z,4.64
2022-12-20T08:46:38.028Z,3.96
2022-12-20T08:49:05.721Z,3.58
2022-12-20T08:51:32.961Z,2.97
2022-12-20T08:54:00.318Z,3.59
2022-12-20T08:56:27.861Z,3.13
2022-12-20T08:58:55.028Z,4.50
2022-12-20T09:01:22.978Z,3.50
2022-12-20T09:03:50.657Z,3.51
2022-12-20T09:06:19.818Z,3.67
2022-12-20T09:08:47.464Z,4.07
2022-12-20T09:11:16.140Z,3.50
2022-12-20T09:13:44.846Z,3.38
2022-12-20T09:16:13.501Z,2.97
2022-12-20T09:18:41.302Z,3.45
2022-12-20T09:21:08.604Z,4.19
2022-12-20T09:23:35.988Z,4.33
2022-12-20T09:26:04.223Z,3.26
2022-12-20T09:28:31.741Z,4.24
2022-12-20T09:31:03.538Z,4.38
2022-12-20T09:33:31.565Z,3.97
2022-12-20T09:35:58.758Z,3.84
2022-12-20T09:38:26.060Z,3.44
2022-12-20T09:40:54.231Z,2.71
2022-12-20T09:43:21.628Z,3.21
2022-12-20T09:45:49.321Z,3.32
2022-12-20T09:48:18.152Z,3.95
2022-12-20T09:51:00.814Z,3.93
2022-12-20T09:53:41.694Z,2.98
2022-12-20T09:56:11.905Z,3.01
2022-12-20T09:58:45.268Z,4.28
2022-12-20T10:01:15.808Z,3.80
2022-12-20T10:03:44.272Z,3.47
2022-12-20T10:06:20.593Z,3.84
2022-12-20T10:08:57.657Z,4.79
2022-12-20T10:11:48.075Z,4.51
2022-12-20T10:14:26.966Z,3.40
2022-12-20T10:16:56.978Z,3.73
2022-12-20T10:19:24.711Z,3.69
2022-12-20T10:21:56.829Z,3.58
2022-12-20T10:24:30.961Z,4.05
2022-12-20T10:26:59.740Z,4.14
2022-12-20T10:29:26.895Z,4.64
2022-12-20T10:31:54.874Z,5.18
2022-12-20T10:34:23.012Z,3.88
2022-12-20T10:36:50.271Z,3.68
2022-12-20T10:39:17.422Z,4.00
2022-12-20T10:41:44.860Z,4.13
2022-12-20T10:44:17.738Z,4.25
2022-12-20T10:46:49.871Z,4.25
2022-12-20T10:49:31.197Z,4.50
2022-12-20T10:52:00.585Z,4.90
2022-12-20T10:54:32.290Z,3.90
2022-12-20T10:57:00.557Z,4.85
2022-12-20T10:59:32.389Z,3.88
2022-12-20T11:01:59.988Z,4.65
2022-12-20T11:04:28.947Z,3.86
2022-12-20T11:06:56.636Z,3.73
2022-12-20T11:09:27.161Z,4.72
2022-12-20T11:12:00.211Z,4.37
2022-12-20T11:14:32.751Z,4.42
2022-12-20T11:17:06.269Z,3.81
2022-12-20T11:19:39.657Z,4.96
2022-12-20T11:22:25.713Z,4.78
2022-12-20T11:24:53.660Z,6.44
2022-12-20T11:27:21.233Z,6.24
2022-12-20T11:29:48.379Z,5.69
2022-12-20T11:32:44.575Z,3.82
2022-12-20T11:35:15.473Z,5.20
2022-12-20T11:38:09.200Z,5.79
2022-12-20T11:40:39.680Z,5.96
2022-12-20T11:43:13.407Z,5.47
2022-12-20T11:45:40.574Z,5.82
2022-12-20T11:48:17.104Z,5.33
2022-12-20T11:51:03.414Z,4.93
2022-12-20T11:53:34.180Z,5.83
2022-12-20T11:56:10.102Z,4.74
2022-12-20T11:58:43.702Z,4.44
2022-12-20T12:01:13.857Z,4.66
2022-12-20T12:03:43.082Z,4.30
2022-12-20T12:06:18.149Z,5.20
2022-12-20T12:09:04.430Z,4.63
2022-12-20T12:12:05.030Z,5.22
2022-12-20T12:14:28.932Z,5.11
2022-12-20T12:16:57.420Z,4.58
2022-12-20T12:19:25.088Z,4.64
2022-12-20T12:22:02.102Z,4.17
2022-12-20T12:24:31.269Z,4.59
2022-12-20T12:26:59.027Z,4.80
2022-12-20T12:29:26.415Z,5.42
2022-12-20T12:31:55.832Z,5.18
2022-12-20T12:34:23.038Z,6.19
2022-12-20T12:36:59.337Z,5.08
2022-12-20T12:39:26.753Z,4.91
2022-12-20T12:42:00.116Z,5.57
2022-12-20T12:44:46.368Z,6.16
2022-12-20T12:47:33.788Z,6.30
2022-12-20T12:50:01.330Z,6.21
2022-12-20T12:52:42.343Z,6.34
2022-12-20T12:55:29.159Z,6.92
2022-12-20T12:57:57.262Z,6.30
2022-12-20T13:00:43.453Z,5.79
2022-12-20T13:03:15.891Z,6.44
2022-12-20T13:05:43.600Z,5.79
2022-12-20T13:08:17.818Z,6.27
2022-12-20T13:10:45.507Z,5.99
2022-12-20T13:13:14.178Z,6.64
2022-12-20T13:15:41.346Z,6.47
2022-12-20T13:18:11.842Z,7.05
2022-12-20T13:20:39.547Z,5.49
2022-12-20T13:23:10.644Z,5.99
2022-12-20T13:25:48.139Z,5.05
2022-12-20T13:28:24.557Z,5.01
2022-12-20T13:31:01.618Z,4.78
2022-12-20T13:33:43.952Z,5.92
2022-12-20T13:36:11.480Z,4.34
2022-12-20T13:38:38.848Z,5.36
2022-12-20T13:41:26.886Z,6.33
2022-12-20T13:44:00.166Z,7.39
2022-12-20T13:46:32.508Z,7.42
2022-12-20T13:49:03.095Z,5.42
2022-12-20T13:51:30.423Z,6.61
2022-12-20T13:53:58.739Z,6.48
2022-12-20T13:56:36.061Z,6.36
2022-12-20T13:59:16.753Z,6.69
2022-12-20T14:01:51.750Z,6.15
2022-12-20T14:04:19.818Z,6.88
2022-12-20T14:06:51.053Z,5.71
2022-12-20T14:09:28.637Z,6.71
2022-12-20T14:11:55.808Z,7.15
2022-12-20T14:14:23.273Z,6.50
2022-12-20T14:16:50.497Z,7.15
2022-12-20T14:19:17.689Z,7.44
2022-12-20T14:21:45.145Z,7.51
2022-12-20T14:24:17.123Z,7.83
2022-12-20T14:26:51.544Z,7.98
2022-12-20T14:29:19.617Z,7.38
2022-12-20T14:31:48.412Z,5.69
2022-12-20T14:34:16.794Z,6.89
2022-12-20T14:36:46.717Z,7.59
2022-12-20T14:39:20.236Z,7.67
2022-12-20T14:41:47.403Z,8.21
2022-12-20T14:44:18.780Z,8.11
2022-12-20T14:47:12.374Z,8.70
2022-12-20T14:49:40.802Z,8.90
2022-12-20T14:52:20.435Z,9.08
2022-12-20T14:55:11.015Z,9.01
2022-12-20T14:57:50.373Z,8.65
2022-12-20T15:00:17.922Z,8.85
2022-12-20T15:02:53.458Z,9.34
2022-12-20T15:05:33.669Z,9.03
2022-12-20T15:08:33.271Z,8.51
2022-12-20T15:11:01.155Z,9.17
2022-12-20T15:13:29.841Z,9.38
2022-12-20T15:15:58.506Z,9.35
2022-12-20T15:18:26.129Z,9.58
2022-12-20T15:21:03.657Z,9.62
2022-12-20T15:23:31.132Z,9.74
2022-12-20T15:25:59.139Z,8.86
2022-12-20T15:28:27.087Z,9.34
2022-12-20T15:30:55.365Z,9.47
2022-12-20T15:33:23.856Z,9.31
2022-12-20T15:35:51.510Z,9.60
2022-12-20T15:38:25.554Z,9.72
2022-12-20T15:41:05.662Z,9.78
2022-12-20T15:43:38.970Z,9.95
2022-12-20T15:46:06.388Z,9.75
2022-12-20T15:48:34.001Z,10.03
2022-12-20T15:51:01.299Z,9.32
2022-12-20T15:53:31.517Z,8.07
2022-12-20T15:55:59.188Z,6.20
2022-12-20T15:58:32.460Z,6.73
2022-12-20T16:01:00.879Z,5.98
2022-12-20T16:03:30.384Z,5.85
2022-12-20T16:05:57.877Z,6.97
2022-12-20T16:08:25.078Z,6.23
2022-12-20T16:10:52.589Z,6.70
2022-12-20T16:13:23.259Z,6.01
2022-12-20T16:15:51.014Z,5.81
2022-12-20T16:18:18.523Z,4.73
2022-12-20T16:20:45.783Z,4.94
2022-12-20T16:23:16.654Z,5.56
2022-12-20T16:25:44.737Z,5.09
2022-12-20T16:28:12.101Z,3.98
2022-12-20T16:30:39.502Z,4.56
2022-12-20T16:33:08.413Z,4.05
2022-12-20T16:35:38.772Z,4.33
2022-12-20T16:38:05.976Z,4.26
2022-12-20T16:40:33.462Z,4.70
2022-12-20T16:43:00.793Z,4.29
2022-12-20T16:45:28.914Z,5.00
2022-12-20T16:47:56.472Z,4.88
2022-12-20T16:50:24.492Z,5.89
2022-12-20T16:52:51.836Z,5.04
2022-12-20T16:55:23.638Z,5.22
2022-12-20T16:57:50.943Z,5.39
2022-12-20T17:00:19.998Z,4.63
2022-12-20T17:02:47.477Z,4.70
2022-12-20T17:05:28.905Z,5.17
2022-12-20T17:07:56.567Z,4.60
2022-12-20T17:10:24.024Z,4.90
2022-12-20T17:12:51.256Z,4.81
2022-12-20T17:15:23.465Z,5.39
2022-12-20T17:17:51.060Z,5.50
2022-12-20T17:20:19.508Z,5.68
2022-12-20T17:22:50.355Z,6.45
2022-12-20T17:25:21.799Z,7.07
2022-12-20T17:27:49.666Z,5.26
2022-12-20T17:30:16.971Z,5.50
2022-12-20T17:32:44.247Z,6.64
2022-12-20T17:35:30.830Z,6.74
2022-12-20T17:37:58.373Z,6.93
2022-12-20T17:40:26.768Z,7.44
2022-12-20T17:42:54.161Z,7.77
2022-12-20T17:45:22.813Z,7.71
2022-12-20T17:47:50.473Z,7.75
2022-12-20T17:50:18.100Z,7.69
2022-12-20T17:52:45.973Z,7.88
2022-12-20T17:55:21.045Z,7.93
2022-12-20T17:57:48.317Z,6.66
2022-12-20T18:00:18.274Z,6.43
2022-12-20T18:02:46.197Z,4.75
2022-12-20T18:05:13.635Z,5.32
2022-12-20T18:07:41.014Z,5.97
2022-12-20T18:10:09.090Z,6.60
2022-12-20T18:12:37.802Z,5.96
2022-12-20T18:15:07.436Z,6.55
2022-12-20T18:17:35.045Z,6.68
2022-12-20T18:20:02.254Z,6.70
2022-12-20T18:22:32.134Z,7.14
2022-12-20T18:25:00.160Z,4.98
2022-12-20T18:27:30.896Z,5.77
2022-12-20T18:29:58.320Z,5.77
2022-12-20T18:32:26.013Z,4.93
2022-12-20T18:34:53.497Z,5.40
2022-12-20T18:37:20.877Z,5.99
2022-12-20T18:39:48.934Z,5.80
2022-12-20T18:42:16.739Z,4.50
2022-12-20T18:44:44.323Z,4.95
2022-12-20T18:47:12.335Z,5.54
2022-12-20T18:49:39.927Z,6.62
2022-12-20T18:52:07.141Z,6.02
2022-12-20T18:54:34.664Z,6.30
2022-12-20T18:57:04.740Z,5.89
2022-12-20T18:59:34.258Z,6.55
2022-12-20T19:02:02.110Z,6.55
2022-12-20T19:04:29.654Z,6.78
2022-12-20T19:06:56.993Z,6.58
2022-12-20T19:09:24.624Z,7.47
2022-12-20T19:11:57.035Z,7.93
2022-12-20T19:14:25.458Z,7.34
2022-12-20T19:16:53.301Z,6.37
2022-12-20T19:19:20.622Z,6.60
2022-12-20T19:21:48.475Z,6.13
2022-12-20T19:24:16.288Z,6.17
2022-12-20T19:26:43.572Z,7.20
2022-12-20T19:29:12.277Z,7.44
2022-12-20T19:31:39.741Z,7.74
2022-12-20T19:34:08.473Z,7.85
2022-12-20T19:36:40.066Z,8.11
2022-12-20T19:39:08.499Z,8.39
2022-12-20T19:41:36.236Z,8.17
2022-12-20T19:44:06.702Z,8.56
2022-12-20T19:46:34.046Z,7.61
2022-12-20T19:49:01.656Z,7.68
2022-12-20T19:51:29.196Z,8.35
2022-12-20T19:53:57.688Z,8.67
2022-12-20T19:56:32.437Z,8.97
2022-12-20T19:58:59.969Z,8.24
2022-12-20T20:01:28.173Z,8.04
2022-12-20T20:03:57.684Z,7.56
2022-12-20T20:06:25.492Z,8.02
2022-12-20T20:08:52.837Z,8.77
2022-12-20T20:11:21.166Z,8.43
2022-12-20T20:13:48.629Z,8.98
2022-12-20T20:16:21.852Z,9.38
2022-12-20T20:18:50.203Z,9.13
2022-12-20T20:21:21.194Z,9.21
2022-12-20T20:23:52.794Z,9.21
2022-12-20T20:26:24.437Z,9.43
2022-12-20T20:28:52.274Z,9.38
2022-12-20T20:31:20.282Z,9.03
2022-12-20T20:33:48.050Z,9.16
2022-12-20T20:36:16.135Z,8.57
2022-12-20T20:38:43.592Z,6.82
2022-12-20T20:41:10.795Z,7.56
2022-12-20T20:43:38.566Z,6.64
2022-12-20T20:46:07.388Z,7.22
2022-12-20T20:48:35.323Z,5.90
2022-12-20T20:51:02.513Z,7.18
2022-12-20T20:53:33.919Z,7.14
2022-12-20T20:56:05.783Z,5.88
2022-12-20T20:58:34.191Z,6.66
2022-12-20T21:01:01.903Z,6.01
2022-12-20T21:03:30.163Z,6.02
2022-12-20T21:08:45.350Z,5.70
2022-12-20T21:11:13.136Z,5.60
2022-12-20T21:13:40.570Z,5.30
2022-12-20T21:16:11.651Z,5.16
2022-12-20T21:18:39.408Z,5.70
2022-12-20T21:21:09.215Z,4.98
2022-12-20T21:23:36.620Z,5.09
2022-12-20T21:26:04.277Z,5.08
2022-12-20T21:28:31.722Z,4.88
2022-12-20T21:31:00.040Z,5.04
2022-12-20T21:33:28.218Z,4.36
2022-12-20T21:36:01.856Z,4.15
2022-12-20T21:38:29.356Z,4.36
2022-12-20T21:41:00.573Z,4.25
2022-12-20T21:43:27.958Z,4.39
2022-12-20T21:45:56.304Z,4.22
2022-12-20T21:48:24.014Z,4.06
2022-12-20T21:50:57.954Z,4.54
2022-12-20T21:53:25.435Z,3.84
2022-12-20T21:55:56.682Z,4.82
2022-12-20T21:58:24.363Z,5.29
2022-12-20T22:00:54.871Z,5.45
2022-12-20T22:03:23.967Z,5.47
2022-12-20T22:05:52.222Z,5.06
2022-12-20T22:08:19.664Z,5.04
2022-12-20T22:10:47.140Z,4.82
2022-12-20T22:13:14.951Z,4.86
2022-12-20T22:15:42.137Z,4.19
2022-12-20T22:18:10.094Z,4.67
2022-12-20T22:20:37.270Z,4.44
2022-12-20T22:23:04.965Z,4.36
2022-12-20T22:25:35.218Z,4.19
2022-12-20T22:28:02.489Z,4.17
2022-12-20T22:30:30.107Z,3.65
2022-12-20T22:32:57.742Z,3.86
2022-12-20T22:35:25.113Z,3.52
2022-12-20T22:37:52.334Z,4.71
2022-12-20T22:40:19.943Z,4.28
2022-12-20T22:42:47.114Z,4.24
2022-12-20T22:45:14.427Z,3.62
2022-12-20T22:50:26.393Z,4.11
2022-12-20T22:52:53.771Z,5.04
2022-12-20T22:55:21.082Z,4.75
2022-12-20T22:57:48.213Z,4.62
2022-12-20T23:00:15.856Z,5.19
2022-12-20T23:02:43.119Z,4.35
2022-12-20T23:05:10.374Z,4.82
2022-12-20T23:07:38.008Z,5.48
2022-12-20T23:10:25.438Z,5.59
2022-12-20T23:13:11.800Z,5.14
2022-12-20T23:15:41.642Z,5.66
2022-12-20T23:18:09.081Z,4.97
2022-12-20T23:20:54.741Z,4.68
2022-12-20T23:23:22.489Z,5.00
2022-12-20T23:25:49.620Z,5.11
2022-12-20T23:28:16.715Z,5.00
2022-12-20T23:30:44.175Z,5.77
2022-12-20T23:33:11.348Z,4.47
2022-12-20T23:35:39.711Z,5.17
2022-12-20T23:38:07.615Z,5.29
2022-12-20T23:40:34.752Z,5.10
2022-12-20T23:43:02.412Z,5.71
2022-12-20T23:45:30.322Z,5.47
2022-12-20T23:47:57.493Z,4.97
2022-12-20T23:50:24.617Z,5.80
2022-12-20T23:52:51.985Z,5.28
2022-12-20T23:55:19.160Z,5.16
2022-12-20T23:57:46.291Z,4.91
